createdAt,value
2018-06-02T00:01:29.281Z,73.33
2018-06-02T00:04:31.842Z,73.27
2018-06-02T00:07:34.291Z,69.13
2018-06-02T00:10:36.804Z,69.67
2018-06-02T00:13:39.267Z,71.43
2018-06-02T00:16:41.762Z,70.90
2018-06-02T00:19:44.340Z,69.27
2018-06-02T00:22:46.917Z,73.57
2018-06-02T00:25:49.415Z,65.63
2018-06-02T00:28:51.925Z,74.60
2018-06-02T00:31:54.401Z,67.93
2018-06-02T00:34:56.900Z,71.40
2018-06-02T00:37:59.367Z,81.37
2018-06-02T00:41:01.884Z,77.53
2018-06-02T00:44:04.422Z,78.60
2018-06-02T00:47:06.907Z,83.50
2018-06-02T00:50:09.447Z,82.40
2018-06-02T00:53:11.905Z,85.40
2018-06-02T00:56:14.406Z,73.47
2018-06-02T00:59:16.912Z,80.23
2018-06-02T01:02:19.503Z,80.30
2018-06-02T01:05:21.993Z,91.47
2018-06-02T01:08:24.473Z,102.67
2018-06-02T01:11:26.959Z,104.17
2018-06-02T01:14:29.566Z,109.67
2018-06-02T01:17:32.044Z,118.50
2018-06-02T01:20:34.503Z,129.03
2018-06-02T01:23:36.962Z,119.10
2018-06-02T01:26:39.422Z,124.73
2018-06-02T01:29:41.918Z,131.70
2018-06-02T01:32:47.021Z,128.10
2018-06-02T01:35:49.527Z,129.80
2018-06-02T01:38:52.023Z,137.17
2018-06-02T01:41:54.551Z,138.73
2018-06-02T01:44:57.109Z,133.43
2018-06-02T01:47:59.596Z,144.07
2018-06-02T01:51:02.064Z,135.07
2018-06-02T01:54:04.562Z,139.43
2018-06-02T01:57:07.062Z,134.90
2018-06-02T02:00:09.747Z,143.00
2018-06-02T02:03:12.188Z,149.13
2018-06-02T02:06:14.687Z,142.20
2018-06-02T02:09:17.240Z,151.10
2018-06-02T02:12:19.793Z,136.87
2018-06-02T02:15:22.249Z,154.67
2018-06-02T02:18:24.815Z,144.53
2018-06-02T02:21:27.276Z,163.67
2018-06-02T02:24:29.763Z,147.30
2018-06-02T02:27:32.199Z,150.97
2018-06-02T02:30:34.699Z,153.30
2018-06-02T02:33:37.227Z,163.27
2018-06-02T02:36:39.739Z,200.43
2018-06-02T02:39:42.239Z,193.43
2018-06-02T02:42:44.762Z,190.73
2018-06-02T02:45:47.271Z,180.63
2018-06-02T02:48:49.839Z,175.17
2018-06-02T02:51:52.313Z,164.77
2018-06-02T02:54:54.789Z,156.07
2018-06-02T02:57:57.239Z,154.97
2018-06-02T03:00:59.762Z,165.07
2018-06-02T03:04:02.258Z,148.63
2018-06-02T03:07:04.716Z,166.20
2018-06-02T03:10:07.218Z,158.27
2018-06-02T03:13:10.594Z,163.73
2018-06-02T03:16:13.068Z,174.87
2018-06-02T03:19:15.649Z,173.47
2018-06-02T03:22:18.234Z,188.47
2018-06-02T03:25:20.763Z,187.60
2018-06-02T03:28:23.266Z,173.07
2018-06-02T03:31:25.813Z,188.73
2018-06-02T03:34:28.307Z,179.87
2018-06-02T03:37:30.783Z,158.63
2018-06-02T03:40:33.253Z,158.90
2018-06-02T03:43:35.783Z,179.63
2018-06-02T03:46:38.236Z,164.23
2018-06-02T03:49:40.784Z,194.27
2018-06-02T03:52:43.294Z,184.60
2018-06-02T03:55:45.754Z,179.53
2018-06-02T03:58:48.223Z,178.03
2018-06-02T04:01:50.733Z,187.90
2018-06-02T04:04:53.287Z,192.50
2018-06-02T04:07:55.867Z,188.93
2018-06-02T04:10:58.387Z,183.87
2018-06-02T04:14:00.873Z,185.67
2018-06-02T04:17:03.318Z,191.77
2018-06-02T04:20:05.823Z,191.53
2018-06-02T04:23:08.994Z,184.50
2018-06-02T04:26:11.489Z,183.73
2018-06-02T04:29:13.968Z,179.77
2018-06-02T04:32:16.553Z,177.53
2018-06-02T04:35:19.038Z,166.40
2018-06-02T04:38:21.593Z,175.87
2018-06-02T04:41:24.102Z,199.73
2018-06-02T04:44:26.598Z,174.97
2018-06-02T04:47:29.118Z,166.07
2018-06-02T04:50:31.591Z,160.50
2018-06-02T04:53:34.056Z,151.20
2018-06-02T04:56:36.646Z,147.63
2018-06-02T04:59:39.094Z,162.93
2018-06-02T05:02:41.608Z,164.30
2018-06-02T05:05:44.130Z,156.93
2018-06-02T05:08:46.747Z,147.43
2018-06-02T05:11:49.208Z,150.93
2018-06-02T05:14:51.700Z,141.80
2018-06-02T05:17:54.179Z,134.70
2018-06-02T05:20:56.747Z,129.60
2018-06-02T05:23:59.236Z,122.87
2018-06-02T05:27:01.739Z,115.67
2018-06-02T05:30:04.217Z,117.93
2018-06-02T05:33:06.719Z,115.43
2018-06-02T05:36:09.198Z,121.90
2018-06-02T05:39:11.750Z,127.83
2018-06-02T05:42:14.211Z,125.33
2018-06-02T05:45:16.735Z,116.53
2018-06-02T05:48:19.184Z,118.10
2018-06-02T05:51:21.679Z,102.37
2018-06-02T05:54:24.150Z,105.50
2018-06-02T05:57:26.680Z,102.70
2018-06-02T06:00:29.216Z,108.23
2018-06-02T06:03:31.684Z,104.30
2018-06-02T06:06:34.184Z,117.33
2018-06-02T06:09:37.530Z,108.43
2018-06-02T06:12:40.021Z,98.73
2018-06-02T06:15:42.498Z,119.90
2018-06-02T06:18:44.996Z,115.50
2018-06-02T06:21:47.451Z,103.67
2018-06-02T06:24:49.961Z,112.87
2018-06-02T06:27:52.514Z,117.33
2018-06-02T06:30:54.991Z,116.07
2018-06-02T06:33:57.534Z,107.27
2018-06-02T06:36:59.983Z,107.80
2018-06-02T06:40:02.490Z,104.43
2018-06-02T06:43:04.944Z,103.80
2018-06-02T06:46:07.457Z,105.73
2018-06-02T06:49:10.040Z,105.27
2018-06-02T06:52:12.535Z,95.10
2018-06-02T06:55:14.989Z,104.33
2018-06-02T06:58:17.481Z,103.97
2018-06-02T07:01:20.012Z,110.13
2018-06-02T07:04:22.525Z,97.60
2018-06-02T07:07:24.973Z,98.97
2018-06-02T07:10:27.504Z,97.53
2018-06-02T07:13:29.976Z,95.57
2018-06-02T07:16:32.556Z,102.07
2018-06-02T07:19:35.005Z,94.17
2018-06-02T07:22:37.507Z,91.53
2018-06-02T07:25:39.984Z,88.50
2018-06-02T07:28:43.510Z,80.43
2018-06-02T07:31:47.131Z,77.90
2018-06-02T07:34:49.689Z,71.27
2018-06-02T07:37:52.180Z,78.23
2018-06-02T07:40:55.940Z,75.13
2018-06-02T07:43:58.425Z,67.80
2018-06-02T07:47:00.985Z,70.60
2018-06-02T07:50:03.506Z,70.73
2018-06-02T07:53:06.032Z,71.60
2018-06-02T07:56:08.491Z,73.77
2018-06-02T07:59:11.035Z,69.87
2018-06-02T08:02:14.341Z,67.47
2018-06-02T08:05:16.840Z,67.87
2018-06-02T08:08:19.386Z,75.17
2018-06-02T08:11:21.822Z,70.50
2018-06-02T08:14:24.381Z,66.23
2018-06-02T08:17:26.877Z,66.50
2018-06-02T08:20:29.404Z,67.03
2018-06-02T08:23:31.991Z,63.47
2018-06-02T08:26:34.458Z,69.50
2018-06-02T08:29:36.991Z,63.37
2018-06-02T08:32:39.527Z,60.90
2018-06-02T08:35:42.076Z,65.50
2018-06-02T08:38:44.560Z,59.60
2018-06-02T08:41:47.111Z,56.77
2018-06-02T08:44:49.614Z,55.90
2018-06-02T08:47:52.096Z,51.80
2018-06-02T08:50:54.662Z,50.93
2018-06-02T08:53:57.132Z,55.00
2018-06-02T08:56:59.762Z,50.10
2018-06-02T09:00:02.241Z,51.20
2018-06-02T09:03:04.732Z,50.07
2018-06-02T09:06:07.241Z,49.17
2018-06-02T09:09:09.993Z,50.13
2018-06-02T09:12:12.456Z,45.93
2018-06-02T09:15:14.996Z,44.93
2018-06-02T09:18:17.442Z,39.60
2018-06-02T09:21:20.004Z,40.43
2018-06-02T09:24:22.516Z,39.43
2018-06-02T09:27:24.979Z,37.87
2018-06-02T09:30:27.607Z,35.97
2018-06-02T09:33:30.072Z,40.03
2018-06-02T09:36:33.411Z,35.27
2018-06-02T09:39:35.911Z,35.10
2018-06-02T09:42:38.422Z,35.60
2018-06-02T09:45:41.008Z,33.43
2018-06-02T09:48:43.513Z,39.00
2018-06-02T09:51:45.973Z,35.23
2018-06-02T09:54:48.582Z,31.77
2018-06-02T09:57:51.080Z,32.53
2018-06-02T10:00:53.654Z,31.70
2018-06-02T10:03:56.192Z,32.60
2018-06-02T10:06:58.670Z,36.10
2018-06-02T10:10:01.192Z,34.90
2018-06-02T10:13:03.713Z,32.50
2018-06-02T10:16:06.162Z,31.67
2018-06-02T10:19:08.704Z,31.20
2018-06-02T10:22:11.278Z,32.23
2018-06-02T10:25:13.855Z,29.17
2018-06-02T10:28:16.352Z,31.00
2018-06-02T10:31:18.802Z,32.17
2018-06-02T10:34:21.287Z,29.10
2018-06-02T10:37:23.769Z,29.60
2018-06-02T10:40:26.247Z,28.33
2018-06-02T10:43:28.808Z,31.93
2018-06-02T10:46:31.349Z,31.57
2018-06-02T10:49:33.908Z,34.07
2018-06-02T10:52:36.447Z,31.20
2018-06-02T10:55:38.968Z,35.83
2018-06-02T10:58:41.483Z,34.93
2018-06-02T11:01:44.087Z,38.23
2018-06-02T11:04:46.905Z,37.10
2018-06-02T11:07:49.401Z,34.70
2018-06-02T11:10:51.877Z,37.63
2018-06-02T11:13:54.405Z,36.27
2018-06-02T11:16:56.903Z,37.90
2018-06-02T11:19:59.605Z,40.20
2018-06-02T11:23:02.080Z,38.07
2018-06-02T11:26:04.621Z,37.40
2018-06-02T11:29:07.104Z,38.57
2018-06-02T11:32:09.585Z,37.77
2018-06-02T11:35:12.168Z,40.80
2018-06-02T11:38:14.625Z,40.50
2018-06-02T11:41:17.202Z,35.50
2018-06-02T11:44:19.793Z,33.67
2018-06-02T11:47:22.278Z,39.30
2018-06-02T11:50:24.762Z,35.77
2018-06-02T11:53:27.279Z,32.10
2018-06-02T11:56:29.788Z,41.90
2018-06-02T11:59:32.263Z,35.20
2018-06-02T12:02:34.774Z,32.70
2018-06-02T12:05:37.394Z,32.37
2018-06-02T12:08:39.893Z,32.33
2018-06-02T12:11:42.415Z,33.23
2018-06-02T12:14:44.969Z,33.53
2018-06-02T12:17:47.534Z,27.70
2018-06-02T12:20:49.986Z,28.20
2018-06-02T12:23:52.499Z,25.70
2018-06-02T12:26:55.045Z,25.97
2018-06-02T12:29:57.563Z,28.13
2018-06-02T12:33:00.015Z,27.73
2018-06-02T12:36:02.609Z,25.53
2018-06-02T12:39:05.860Z,26.63
2018-06-02T12:42:08.336Z,24.03
2018-06-02T12:45:10.899Z,30.00
2018-06-02T12:48:13.544Z,23.33
2018-06-02T12:51:16.005Z,27.37
2018-06-02T12:54:18.511Z,27.03
2018-06-02T12:57:21.017Z,25.20
2018-06-02T13:00:23.486Z,29.00
2018-06-02T13:03:25.966Z,34.80
2018-06-02T13:06:28.415Z,29.27
2018-06-02T13:09:30.919Z,34.93
2018-06-02T13:12:33.384Z,34.73
2018-06-02T13:15:35.885Z,30.30
2018-06-02T13:18:38.489Z,32.30
2018-06-02T13:21:41.031Z,30.97
2018-06-02T13:24:43.536Z,29.77
2018-06-02T13:27:45.996Z,32.77
2018-06-02T13:30:48.474Z,29.87
2018-06-02T13:33:50.968Z,35.80
2018-06-02T13:36:53.550Z,35.53
2018-06-02T13:39:56.028Z,35.20
2018-06-02T13:42:58.548Z,34.93
2018-06-02T13:46:01.047Z,35.20
2018-06-02T13:49:03.550Z,34.73
2018-06-02T13:52:06.052Z,35.87
2018-06-02T13:55:08.532Z,33.90
2018-06-02T13:58:11.154Z,31.70
2018-06-02T14:01:13.660Z,30.73
2018-06-02T14:04:16.165Z,28.70
2018-06-02T14:07:18.655Z,33.10
2018-06-02T14:10:21.175Z,30.37
2018-06-02T14:13:23.708Z,27.50
2018-06-02T14:16:26.200Z,33.23
2018-06-02T14:19:28.780Z,32.13
2018-06-02T14:22:31.276Z,31.37
2018-06-02T14:25:33.909Z,31.53
2018-06-02T14:28:36.384Z,30.83
2018-06-02T14:31:38.862Z,27.50
2018-06-02T14:34:41.371Z,34.90
2018-06-02T14:37:43.930Z,36.80
2018-06-02T14:40:46.460Z,32.97
2018-06-02T14:43:48.961Z,33.17
2018-06-02T14:46:51.473Z,43.00
2018-06-02T14:49:54.010Z,41.20
2018-06-02T14:52:56.515Z,43.70
2018-06-02T14:55:58.997Z,39.30
2018-06-02T14:59:01.517Z,37.00
2018-06-02T15:02:04.142Z,37.13
2018-06-02T15:05:06.624Z,38.23
2018-06-02T15:08:09.130Z,37.00
2018-06-02T15:11:11.643Z,37.60
2018-06-02T15:14:14.140Z,38.60
2018-06-02T15:17:16.701Z,45.07
2018-06-02T15:20:19.175Z,35.10
2018-06-02T15:23:21.751Z,39.27
2018-06-02T15:26:24.294Z,32.60
2018-06-02T15:29:26.806Z,30.07
2018-06-02T15:32:29.341Z,34.83
2018-06-02T15:35:31.942Z,34.57
2018-06-02T15:38:34.457Z,36.77
2018-06-02T15:41:37.002Z,32.60
2018-06-02T15:44:39.487Z,33.60
2018-06-02T15:47:42.042Z,37.40
2018-06-02T15:50:44.529Z,36.50
2018-06-02T15:53:47.057Z,34.87
2018-06-02T15:56:51.491Z,33.13
2018-06-02T15:59:53.975Z,33.67
2018-06-02T16:02:56.487Z,32.50
2018-06-02T16:05:58.986Z,32.90
2018-06-02T16:09:01.491Z,36.90
2018-06-02T16:12:03.987Z,38.57
2018-06-02T16:15:06.501Z,40.57
2018-06-02T16:18:09.003Z,45.93
2018-06-02T16:21:11.511Z,40.27
2018-06-02T16:24:14.018Z,70.00
2018-06-02T16:27:16.528Z,45.13
2018-06-02T16:30:19.074Z,36.80
2018-06-02T16:33:21.568Z,36.57
2018-06-02T16:36:24.067Z,43.37
2018-06-02T16:39:26.533Z,39.80
2018-06-02T16:42:29.027Z,40.47
2018-06-02T16:45:31.514Z,40.60
2018-06-02T16:48:34.041Z,39.80
2018-06-02T16:51:36.541Z,36.10
2018-06-02T16:54:39.075Z,39.97
2018-06-02T16:57:41.583Z,33.57
2018-06-02T17:00:44.085Z,35.97
2018-06-02T17:03:46.597Z,36.90
2018-06-02T17:06:49.121Z,36.87
2018-06-02T17:09:51.664Z,31.13
2018-06-02T17:12:54.193Z,40.73
2018-06-02T17:15:56.756Z,37.33
2018-06-02T17:18:59.333Z,36.93
2018-06-02T17:22:01.878Z,36.43
2018-06-02T17:25:04.434Z,42.50
2018-06-02T17:28:06.953Z,37.40
2018-06-02T17:31:09.457Z,37.23
2018-06-02T17:34:11.948Z,35.57
2018-06-02T17:37:14.496Z,39.97
2018-06-02T17:40:17.042Z,43.77
2018-06-02T17:43:19.547Z,38.77
2018-06-02T17:46:22.052Z,41.57
2018-06-02T17:49:24.497Z,39.40
2018-06-02T17:52:27.014Z,40.47
2018-06-02T17:55:29.557Z,37.80
2018-06-02T17:58:32.070Z,48.33
2018-06-02T18:01:34.597Z,43.33
2018-06-02T18:04:37.074Z,47.47
2018-06-02T18:07:39.557Z,42.67
2018-06-02T18:10:42.018Z,40.37
2018-06-02T18:13:44.526Z,41.47
2018-06-02T18:16:46.996Z,42.30
2018-06-02T18:19:49.557Z,47.13
2018-06-02T18:22:52.062Z,47.80
2018-06-02T18:25:54.571Z,48.70
2018-06-02T18:28:57.076Z,50.13
2018-06-02T18:31:59.588Z,51.00
2018-06-02T18:35:02.090Z,49.90
2018-06-02T18:38:04.584Z,53.67
2018-06-02T18:41:07.046Z,55.07
2018-06-02T18:44:09.578Z,57.60
2018-06-02T18:47:12.139Z,49.27
2018-06-02T18:50:14.787Z,49.70
2018-06-02T18:53:17.281Z,56.60
2018-06-02T18:56:19.807Z,49.03
2018-06-02T18:59:22.372Z,55.60
2018-06-02T19:02:24.916Z,56.73
2018-06-02T19:05:27.477Z,52.57
2018-06-02T19:08:30.002Z,51.83
2018-06-02T19:11:32.468Z,50.67
2018-06-02T19:14:35.008Z,53.03
2018-06-02T19:17:37.546Z,49.97
2018-06-02T19:20:40.071Z,52.90
2018-06-02T19:23:42.583Z,46.83
2018-06-02T19:26:45.047Z,50.77
2018-06-02T19:29:47.643Z,55.97
2018-06-02T19:32:50.133Z,61.33
2018-06-02T19:35:52.658Z,54.33
2018-06-02T19:38:55.190Z,61.90
2018-06-02T19:41:57.735Z,64.80
2018-06-02T19:45:00.290Z,58.90
2018-06-02T19:48:02.859Z,60.53
2018-06-02T19:51:05.352Z,61.83
2018-06-02T19:54:07.875Z,80.30
2018-06-02T19:57:10.543Z,78.50
2018-06-02T20:00:12.998Z,63.63
2018-06-02T20:03:15.556Z,69.13
2018-06-02T20:06:18.030Z,61.90
2018-06-02T20:09:20.489Z,70.17
2018-06-02T20:12:22.999Z,64.00
2018-06-02T20:15:25.457Z,77.70
2018-06-02T20:18:27.964Z,72.20
2018-06-02T20:21:30.423Z,63.07
2018-06-02T20:24:32.963Z,71.87
2018-06-02T20:27:35.560Z,71.87
2018-06-02T20:30:38.139Z,65.20
2018-06-02T20:33:40.781Z,70.00
2018-06-02T20:36:43.256Z,71.43
2018-06-02T20:39:45.803Z,77.10
2018-06-02T20:42:48.296Z,76.57
2018-06-02T20:45:50.844Z,74.03
2018-06-02T20:48:53.314Z,80.53
2018-06-02T20:51:55.921Z,80.63
2018-06-02T20:54:58.424Z,78.20
2018-06-02T20:58:00.946Z,84.67
2018-06-02T21:01:03.515Z,81.07
2018-06-02T21:04:06.105Z,75.73
2018-06-02T21:07:08.610Z,81.00
2018-06-02T21:10:11.120Z,75.50
2018-06-02T21:13:13.621Z,84.00
2018-06-02T21:16:16.101Z,81.03
2018-06-02T21:19:18.596Z,90.37
2018-06-02T21:22:21.122Z,78.00
2018-06-02T21:25:23.681Z,91.70
2018-06-02T21:28:26.155Z,79.37
2018-06-02T21:31:28.708Z,86.20
2018-06-02T21:34:31.218Z,89.33
2018-06-02T21:37:33.701Z,86.73
2018-06-02T21:40:36.239Z,95.40
2018-06-02T21:43:38.809Z,90.37
2018-06-02T21:46:41.353Z,94.37
2018-06-02T21:49:43.840Z,91.30
2018-06-02T21:52:46.416Z,95.83
2018-06-02T21:55:48.956Z,90.47
2018-06-02T21:58:51.515Z,85.87
2018-06-02T22:01:54.133Z,94.60
2018-06-02T22:04:56.735Z,97.73
2018-06-02T22:07:59.195Z,85.57
2018-06-02T22:11:01.818Z,94.43
2018-06-02T22:14:04.285Z,94.73
2018-06-02T22:17:06.808Z,95.93
2018-06-02T22:20:09.352Z,87.37
2018-06-02T22:23:11.815Z,89.40
2018-06-02T22:26:14.305Z,98.23
2018-06-02T22:29:16.866Z,71.70
2018-06-02T22:32:19.355Z,86.73
2018-06-02T22:35:21.861Z,77.93
2018-06-02T22:38:24.347Z,90.50
2018-06-02T22:41:26.800Z,98.67
2018-06-02T22:44:29.285Z,98.00
2018-06-02T22:47:31.773Z,79.17
2018-06-02T22:50:34.371Z,94.87
2018-06-02T22:53:36.976Z,95.23
2018-06-02T22:56:39.425Z,107.70
2018-06-02T22:59:41.924Z,92.07
2018-06-02T23:02:44.439Z,94.83
2018-06-02T23:05:46.900Z,93.93
2018-06-02T23:08:49.386Z,87.13
2018-06-02T23:11:51.880Z,89.20
2018-06-02T23:14:54.449Z,95.60
2018-06-02T23:17:56.937Z,85.37
2018-06-02T23:20:59.470Z,99.37
2018-06-02T23:24:02.000Z,91.87
2018-06-02T23:27:04.501Z,91.47
2018-06-02T23:30:06.984Z,93.90
2018-06-02T23:33:09.484Z,99.60
2018-06-02T23:36:12.326Z,99.00
2018-06-02T23:39:14.839Z,102.87
2018-06-02T23:42:17.324Z,97.33
2018-06-02T23:45:19.833Z,101.27
2018-06-02T23:48:22.405Z,94.23
2018-06-02T23:51:25.006Z,85.93
2018-06-02T23:54:27.554Z,98.57
2018-06-02T23:57:30.035Z,97.97
